createdAt,value
2022-12-11T00:02:21.610Z,21.07
2022-12-11T00:04:48.254Z,21.08
2022-12-11T00:07:14.890Z,21.10
2022-12-11T00:09:41.504Z,21.11
2022-12-11T00:12:08.133Z,21.12
2022-12-11T00:14:35.395Z,21.12
2022-12-11T00:17:02.106Z,21.12
2022-12-11T00:19:28.797Z,21.12
2022-12-11T00:21:55.403Z,21.12
2022-12-11T00:24:22.085Z,21.11
2022-12-11T00:26:48.785Z,21.11
2022-12-11T00:29:15.379Z,21.12
2022-12-11T00:31:42.415Z,21.10
2022-12-11T00:34:09.329Z,21.09
2022-12-11T00:36:35.954Z,21.08
2022-12-11T00:39:03.723Z,21.06
2022-12-11T00:41:30.666Z,21.05
2022-12-11T00:44:05.807Z,21.04
2022-12-11T00:46:32.514Z,21.02
2022-12-11T00:48:59.134Z,21.00
2022-12-11T00:51:26.288Z,20.98
2022-12-11T00:53:59.267Z,20.97
2022-12-11T00:56:26.010Z,20.95
2022-12-11T00:58:52.626Z,20.91
2022-12-11T01:01:21.207Z,20.90
2022-12-11T01:03:48.404Z,20.88
2022-12-11T01:06:19.523Z,20.85
2022-12-11T01:08:47.143Z,20.83
2022-12-11T01:11:15.945Z,20.81
2022-12-11T01:13:43.012Z,20.78
2022-12-11T01:16:10.823Z,20.75
2022-12-11T01:18:37.760Z,20.73
2022-12-11T01:21:08.996Z,20.71
2022-12-11T01:23:35.629Z,20.68
2022-12-11T01:26:11.784Z,20.66
2022-12-11T01:28:38.831Z,20.63
2022-12-11T01:31:12.634Z,20.60
2022-12-11T01:33:39.774Z,20.57
2022-12-11T01:36:09.416Z,20.54
2022-12-11T01:38:36.462Z,20.49
2022-12-11T01:41:03.282Z,20.48
2022-12-11T01:43:30.122Z,20.44
2022-12-11T01:45:56.800Z,20.41
2022-12-11T01:48:28.873Z,20.37
2022-12-11T01:50:57.651Z,20.32
2022-12-11T01:53:27.661Z,20.26
2022-12-11T01:55:55.394Z,20.23
2022-12-11T01:58:23.705Z,20.19
2022-12-11T02:00:51.757Z,20.16
2022-12-11T02:03:18.590Z,20.11
2022-12-11T02:05:45.319Z,20.11
2022-12-11T02:08:12.463Z,20.10
2022-12-11T02:10:58.023Z,20.04
2022-12-11T02:13:33.206Z,20.01
2022-12-11T02:16:07.854Z,19.98
2022-12-11T02:18:48.229Z,19.92
2022-12-11T02:21:24.003Z,19.87
2022-12-11T02:24:00.455Z,19.82
2022-12-11T02:26:46.551Z,19.78
2022-12-11T02:29:17.440Z,19.76
2022-12-11T02:32:07.469Z,19.73
2022-12-11T02:34:46.951Z,19.67
2022-12-11T02:37:16.797Z,19.64
2022-12-11T02:39:49.728Z,19.57
2022-12-11T02:42:16.745Z,19.56
2022-12-11T02:44:44.280Z,19.54
2022-12-11T02:47:12.675Z,19.49
2022-12-11T02:49:49.910Z,19.46
2022-12-11T02:52:19.488Z,19.44
2022-12-11T02:54:47.200Z,19.38
2022-12-11T02:57:19.339Z,19.38
2022-12-11T02:59:46.642Z,19.35
2022-12-11T03:02:15.303Z,19.33
2022-12-11T03:04:42.427Z,19.29
2022-12-11T03:07:18.194Z,19.22
2022-12-11T03:09:48.597Z,19.21
2022-12-11T03:12:17.635Z,19.21
2022-12-11T03:14:44.504Z,19.18
2022-12-11T03:17:22.320Z,19.13
2022-12-11T03:20:21.655Z,19.06
2022-12-11T03:22:52.378Z,19.00
2022-12-11T03:25:22.352Z,18.97
2022-12-11T03:28:01.535Z,18.95
2022-12-11T03:30:29.049Z,18.92
2022-12-11T03:33:03.017Z,18.91
2022-12-11T03:35:39.209Z,18.88
2022-12-11T03:38:08.369Z,18.85
2022-12-11T03:40:36.352Z,18.84
2022-12-11T03:43:03.711Z,18.82
2022-12-11T03:45:30.615Z,18.78
2022-12-11T03:47:58.540Z,18.75
2022-12-11T03:50:26.694Z,18.73
2022-12-11T03:52:54.102Z,18.69
2022-12-11T03:55:22.328Z,18.67
2022-12-11T03:57:49.201Z,18.62
2022-12-11T04:00:18.133Z,18.58
2022-12-11T04:02:45.362Z,18.58
2022-12-11T04:05:12.402Z,18.55
2022-12-11T04:07:39.305Z,18.52
2022-12-11T04:10:07.160Z,18.49
2022-12-11T04:12:33.760Z,18.43
2022-12-11T04:15:03.166Z,18.41
2022-12-11T04:17:48.880Z,18.38
2022-12-11T04:20:34.077Z,18.35
2022-12-11T04:23:19.080Z,18.31
2022-12-11T04:25:45.721Z,18.29
2022-12-11T04:28:12.413Z,18.31
2022-12-11T04:30:39.151Z,18.28
2022-12-11T04:33:06.040Z,18.25
2022-12-11T04:35:32.814Z,18.25
2022-12-11T04:37:59.498Z,18.23
2022-12-11T04:40:26.164Z,18.20
2022-12-11T04:42:52.809Z,18.17
2022-12-11T04:45:19.545Z,18.14
2022-12-11T04:47:46.261Z,18.12
2022-12-11T04:50:14.493Z,18.10
2022-12-11T04:52:41.377Z,18.05
2022-12-11T04:55:09.357Z,18.04
2022-12-11T04:57:36.363Z,18.02
2022-12-11T05:00:04.972Z,17.99
2022-12-11T05:02:34.177Z,17.97
2022-12-11T05:05:00.797Z,17.94
2022-12-11T05:07:27.405Z,17.93
2022-12-11T05:09:54.082Z,17.91
2022-12-11T05:12:20.714Z,17.88
2022-12-11T05:14:47.427Z,17.86
2022-12-11T05:17:14.013Z,17.86
2022-12-11T05:19:50.721Z,17.83
2022-12-11T05:22:18.120Z,17.81
2022-12-11T05:24:45.576Z,17.82
2022-12-11T05:27:12.245Z,17.82
2022-12-11T05:29:44.528Z,17.79
2022-12-11T05:32:11.227Z,17.74
2022-12-11T05:34:37.909Z,17.70
2022-12-11T05:37:04.553Z,17.67
2022-12-11T05:39:31.200Z,17.64
2022-12-11T05:41:57.956Z,17.63
2022-12-11T05:44:25.169Z,17.63
2022-12-11T05:46:51.937Z,17.64
2022-12-11T05:49:20.188Z,17.65
2022-12-11T05:51:46.938Z,17.63
2022-12-11T05:54:13.630Z,17.60
2022-12-11T05:56:40.394Z,17.56
2022-12-11T05:59:07.413Z,17.52
2022-12-11T06:01:35.660Z,17.52
2022-12-11T06:04:03.178Z,17.48
2022-12-11T06:06:29.781Z,17.46
2022-12-11T06:08:57.416Z,17.42
2022-12-11T06:11:24.789Z,17.38
2022-12-11T06:13:52.235Z,17.34
2022-12-11T06:16:19.117Z,17.35
2022-12-11T06:18:46.067Z,17.36
2022-12-11T06:21:17.285Z,17.39
2022-12-11T06:23:44.557Z,17.36
2022-12-11T06:26:11.965Z,17.32
2022-12-11T06:28:38.711Z,17.26
2022-12-11T06:31:05.460Z,17.24
2022-12-11T06:33:32.691Z,17.24
2022-12-11T06:36:06.805Z,17.24
2022-12-11T06:38:33.432Z,17.23
2022-12-11T06:41:01.254Z,17.23
2022-12-11T06:43:27.986Z,17.20
2022-12-11T06:45:59.173Z,17.21
2022-12-11T06:48:28.814Z,17.18
2022-12-11T06:50:55.459Z,17.18
2022-12-11T06:53:22.194Z,17.18
2022-12-11T06:55:48.851Z,17.18
2022-12-11T06:58:15.538Z,17.20
2022-12-11T07:00:42.195Z,17.22
2022-12-11T07:03:10.129Z,17.24
2022-12-11T07:05:36.707Z,17.26
2022-12-11T07:08:03.377Z,17.28
2022-12-11T07:10:30.178Z,17.31
2022-12-11T07:12:56.889Z,17.33
2022-12-11T07:15:23.537Z,17.39
2022-12-11T07:17:50.128Z,17.41
2022-12-11T07:20:17.527Z,17.46
2022-12-11T07:22:46.582Z,17.50
2022-12-11T07:25:13.734Z,17.53
2022-12-11T07:27:41.731Z,17.58
2022-12-11T07:30:08.966Z,17.63
2022-12-11T07:32:35.625Z,17.67
2022-12-11T07:35:02.394Z,17.71
2022-12-11T07:37:28.982Z,17.77
2022-12-11T07:39:55.587Z,17.82
2022-12-11T07:42:22.277Z,17.86
2022-12-11T07:44:49.000Z,17.92
2022-12-11T07:47:15.725Z,17.95
2022-12-11T07:49:51.574Z,18.01
2022-12-11T07:52:18.150Z,18.07
2022-12-11T07:54:44.771Z,18.11
2022-12-11T07:57:14.184Z,18.15
2022-12-11T07:59:44.542Z,18.21
2022-12-11T08:02:12.137Z,18.26
2022-12-11T08:04:39.113Z,18.29
2022-12-11T08:07:05.774Z,18.35
2022-12-11T08:09:32.445Z,18.40
2022-12-11T08:11:59.171Z,18.44
2022-12-11T08:14:25.822Z,18.48
2022-12-11T08:16:52.677Z,18.52
2022-12-11T08:19:19.382Z,18.55
2022-12-11T08:21:46.198Z,18.60
2022-12-11T08:24:12.906Z,18.63
2022-12-11T08:26:39.572Z,18.69
2022-12-11T08:29:06.377Z,18.72
2022-12-11T08:31:33.357Z,18.75
2022-12-11T08:34:00.032Z,18.79
2022-12-11T08:36:26.737Z,18.81
2022-12-11T08:38:54.525Z,18.83
2022-12-11T08:41:25.569Z,18.85
2022-12-11T08:43:55.618Z,18.88
2022-12-11T08:46:26.306Z,18.89
2022-12-11T08:48:53.326Z,18.90
2022-12-11T08:51:22.877Z,18.91
2022-12-11T08:53:50.481Z,18.92
2022-12-11T08:56:18.514Z,18.93
2022-12-11T08:58:45.929Z,18.93
2022-12-11T09:01:14.396Z,18.94
2022-12-11T09:03:41.552Z,18.94
2022-12-11T09:06:09.912Z,18.93
2022-12-11T09:08:36.924Z,18.93
2022-12-11T09:11:13.433Z,18.92
2022-12-11T09:13:40.585Z,18.92
2022-12-11T09:16:08.266Z,18.90
2022-12-11T09:18:35.089Z,18.89
2022-12-11T09:21:02.709Z,18.89
2022-12-11T09:23:29.642Z,18.88
2022-12-11T09:25:56.715Z,18.86
2022-12-11T09:28:23.806Z,18.85
2022-12-11T09:30:50.509Z,18.84
2022-12-11T09:33:17.696Z,18.83
2022-12-11T09:35:44.636Z,18.83
2022-12-11T09:38:11.377Z,18.80
2022-12-11T09:40:43.115Z,18.79
2022-12-11T09:43:15.765Z,18.79
2022-12-11T09:45:42.481Z,18.75
2022-12-11T09:48:10.793Z,18.73
2022-12-11T09:50:37.550Z,18.73
2022-12-11T09:53:34.404Z,18.70
2022-12-11T09:56:01.253Z,18.29
2022-12-11T09:58:34.268Z,18.34
2022-12-11T10:01:37.819Z,18.38
2022-12-11T10:04:39.784Z,18.42
2022-12-11T10:07:20.257Z,18.43
2022-12-11T10:10:03.930Z,18.44
2022-12-11T10:12:49.530Z,18.46
2022-12-11T10:15:19.051Z,18.48
2022-12-11T10:17:46.011Z,18.51
2022-12-11T10:20:37.540Z,18.53
2022-12-11T10:23:07.006Z,18.55
2022-12-11T10:25:37.952Z,18.59
2022-12-11T10:28:13.187Z,18.62
2022-12-11T10:30:42.239Z,18.65
2022-12-11T10:33:11.947Z,18.69
2022-12-11T10:35:42.471Z,18.72
2022-12-11T10:38:14.346Z,18.76
2022-12-11T10:40:43.236Z,18.79
2022-12-11T10:43:10.872Z,18.82
2022-12-11T10:45:51.789Z,18.86
2022-12-11T10:48:18.720Z,18.88
2022-12-11T10:50:55.199Z,18.92
2022-12-11T10:53:22.245Z,18.95
2022-12-11T10:55:49.727Z,18.98
2022-12-11T10:58:19.136Z,19.02
2022-12-11T11:00:46.474Z,19.05
2022-12-11T11:03:24.053Z,19.08
2022-12-11T11:05:50.950Z,19.12
2022-12-11T11:08:27.747Z,19.15
2022-12-11T11:11:01.313Z,19.18
2022-12-11T11:13:30.086Z,19.20
2022-12-11T11:16:05.286Z,19.23
2022-12-11T11:18:32.282Z,19.26
2022-12-11T11:20:59.254Z,19.28
2022-12-11T11:23:26.282Z,19.31
2022-12-11T11:25:52.934Z,19.34
2022-12-11T11:28:21.961Z,19.36
2022-12-11T11:31:14.835Z,19.38
2022-12-11T11:33:50.597Z,19.42
2022-12-11T11:36:22.272Z,19.44
2022-12-11T11:39:07.483Z,19.47
2022-12-11T11:41:34.135Z,19.51
2022-12-11T11:44:04.310Z,19.52
2022-12-11T11:46:35.317Z,19.55
2022-12-11T11:49:08.167Z,19.58
2022-12-11T11:51:39.008Z,19.60
2022-12-11T11:54:21.328Z,19.62
2022-12-11T11:56:50.385Z,19.66
2022-12-11T11:59:22.093Z,19.68
2022-12-11T12:01:48.889Z,19.70
2022-12-11T12:04:15.937Z,19.72
2022-12-11T12:07:00.885Z,19.73
2022-12-11T12:09:48.677Z,19.75
2022-12-11T12:12:24.744Z,19.76
2022-12-11T12:15:15.468Z,19.76
2022-12-11T12:17:45.698Z,19.78
2022-12-11T12:20:13.847Z,19.78
2022-12-11T12:22:49.108Z,19.77
2022-12-11T12:25:22.395Z,19.77
2022-12-11T12:27:57.971Z,19.78
2022-12-11T12:30:24.990Z,19.78
2022-12-11T12:33:10.443Z,19.77
2022-12-11T12:36:06.774Z,19.77
2022-12-11T12:38:54.337Z,19.76
2022-12-11T12:41:23.217Z,19.75
2022-12-11T12:43:59.160Z,19.73
2022-12-11T12:46:34.921Z,19.73
2022-12-11T12:49:02.528Z,19.71
2022-12-11T12:51:30.325Z,19.70
2022-12-11T12:54:04.687Z,19.69
2022-12-11T12:56:36.869Z,19.68
2022-12-11T12:59:03.605Z,19.65
2022-12-11T13:01:31.510Z,19.63
2022-12-11T13:03:59.879Z,19.59
2022-12-11T13:06:31.889Z,19.57
2022-12-11T13:08:58.842Z,19.54
2022-12-11T13:11:32.893Z,19.53
2022-12-11T13:14:04.329Z,19.50
2022-12-11T13:16:41.251Z,19.49
2022-12-11T13:19:27.035Z,19.47
2022-12-11T13:21:56.841Z,19.47
2022-12-11T13:24:23.574Z,19.45
2022-12-11T13:26:50.839Z,19.45
2022-12-11T13:29:49.285Z,19.46
2022-12-11T13:32:19.125Z,19.46
2022-12-11T13:34:51.717Z,19.46
2022-12-11T13:37:44.277Z,19.46
2022-12-11T13:40:19.330Z,19.49
2022-12-11T13:43:00.859Z,19.50
2022-12-11T13:45:29.854Z,19.51
2022-12-11T13:47:57.509Z,19.53
2022-12-11T13:50:31.995Z,19.55
2022-12-11T13:53:00.030Z,19.56
2022-12-11T13:55:31.112Z,19.59
2022-12-11T13:57:58.284Z,19.60
2022-12-11T14:00:26.804Z,19.64
2022-12-11T14:02:55.590Z,19.65
2022-12-11T14:05:22.625Z,19.68
2022-12-11T14:07:51.934Z,19.69
2022-12-11T14:10:24.269Z,19.71
2022-12-11T14:12:53.880Z,19.73
2022-12-11T14:15:21.287Z,19.75
2022-12-11T14:17:51.666Z,19.77
2022-12-11T14:20:29.236Z,19.80
2022-12-11T14:23:29.016Z,19.81
2022-12-11T14:26:05.130Z,19.83
2022-12-11T14:28:40.823Z,19.86
2022-12-11T14:31:29.586Z,19.87
2022-12-11T14:34:04.349Z,19.90
2022-12-11T14:36:33.415Z,19.92
2022-12-11T14:39:07.081Z,19.92
2022-12-11T14:42:04.997Z,19.93
2022-12-11T14:44:33.963Z,19.94
2022-12-11T14:47:10.839Z,19.95
2022-12-11T14:50:13.830Z,19.95
2022-12-11T14:52:52.081Z,19.95
2022-12-11T14:55:28.912Z,19.95
2022-12-11T14:58:02.258Z,19.95
2022-12-11T15:00:32.167Z,19.96
2022-12-11T15:03:01.421Z,19.95
2022-12-11T15:05:28.794Z,19.94
2022-12-11T15:07:59.672Z,19.93
2022-12-11T15:10:37.691Z,19.92
2022-12-11T15:13:06.112Z,19.89
2022-12-11T15:15:37.877Z,19.89
2022-12-11T15:18:08.327Z,19.90
2022-12-11T15:20:35.019Z,19.89
2022-12-11T15:23:02.397Z,19.89
2022-12-11T15:25:29.963Z,19.89
2022-12-11T15:27:58.146Z,19.97
2022-12-11T15:30:34.723Z,20.03
2022-12-11T15:33:04.337Z,20.07
2022-12-11T15:35:31.164Z,20.06
2022-12-11T15:37:58.786Z,20.05
2022-12-11T15:40:25.839Z,20.02
2022-12-11T15:42:52.825Z,20.01
2022-12-11T15:45:23.814Z,19.94
2022-12-11T15:47:50.556Z,19.92
2022-12-11T15:50:24.874Z,19.89
2022-12-11T15:52:52.259Z,19.87
2022-12-11T15:55:19.557Z,19.86
2022-12-11T15:57:47.764Z,19.86
2022-12-11T16:00:15.219Z,19.85
2022-12-11T16:02:42.039Z,19.84
2022-12-11T16:05:09.248Z,19.86
2022-12-11T16:07:36.330Z,19.85
2022-12-11T16:10:02.966Z,19.87
2022-12-11T16:12:29.662Z,19.88
2022-12-11T16:14:56.586Z,19.89
2022-12-11T16:17:23.261Z,19.91
2022-12-11T16:19:50.144Z,19.92
2022-12-11T16:22:17.008Z,19.93
2022-12-11T16:24:43.786Z,19.94
2022-12-11T16:27:10.779Z,19.95
2022-12-11T16:29:42.925Z,19.97
2022-12-11T16:32:10.275Z,19.99
2022-12-11T16:34:37.797Z,20.00
2022-12-11T16:37:05.201Z,20.02
2022-12-11T16:39:31.979Z,20.03
2022-12-11T16:41:58.745Z,20.05
2022-12-11T16:44:26.198Z,20.06
2022-12-11T16:46:54.375Z,20.07
2022-12-11T16:49:21.695Z,20.09
2022-12-11T16:51:49.704Z,20.11
2022-12-11T16:54:16.759Z,20.11
2022-12-11T16:56:43.422Z,20.12
2022-12-11T16:59:10.073Z,20.13
2022-12-11T17:01:36.971Z,20.13
2022-12-11T17:04:03.746Z,20.13
2022-12-11T17:06:30.364Z,20.13
2022-12-11T17:08:57.229Z,20.14
2022-12-11T17:11:25.394Z,20.12
2022-12-11T17:13:58.685Z,20.09
2022-12-11T17:16:26.721Z,20.11
2022-12-11T17:18:53.470Z,20.10
2022-12-11T17:21:21.213Z,20.09
2022-12-11T17:23:48.368Z,20.05
2022-12-11T17:26:15.454Z,20.04
2022-12-11T17:28:42.247Z,20.03
2022-12-11T17:31:12.196Z,20.02
2022-12-11T17:33:39.385Z,19.99
2022-12-11T17:36:06.769Z,19.97
2022-12-11T17:38:33.701Z,19.94
2022-12-11T17:41:00.516Z,19.93
2022-12-11T17:43:27.546Z,19.91
2022-12-11T17:45:55.348Z,19.87
2022-12-11T17:48:24.939Z,19.84
2022-12-11T17:50:52.612Z,19.81
2022-12-11T17:53:20.288Z,19.78
2022-12-11T17:55:47.611Z,19.75
2022-12-11T17:58:15.979Z,19.74
2022-12-11T18:00:44.812Z,19.70
2022-12-11T18:03:12.034Z,19.69
2022-12-11T18:05:42.534Z,19.64
2022-12-11T18:08:11.902Z,19.61
2022-12-11T18:10:38.621Z,19.59
2022-12-11T18:13:05.374Z,19.57
2022-12-11T18:15:32.841Z,19.53
2022-12-11T18:17:59.968Z,19.51
2022-12-11T18:20:26.744Z,19.48
2022-12-11T18:22:53.755Z,19.46
2022-12-11T18:25:20.449Z,19.46
2022-12-11T18:27:47.139Z,19.46
2022-12-11T18:30:14.468Z,19.46
2022-12-11T18:32:41.911Z,19.47
2022-12-11T18:35:08.863Z,19.47
2022-12-11T18:37:36.076Z,19.50
2022-12-11T18:40:03.064Z,19.51
2022-12-11T18:42:33.768Z,19.53
2022-12-11T18:45:00.958Z,19.55
2022-12-11T18:47:27.760Z,19.56
2022-12-11T18:49:54.418Z,19.58
2022-12-11T18:52:21.063Z,19.60
2022-12-11T18:54:47.872Z,19.63
2022-12-11T18:57:14.619Z,19.65
2022-12-11T18:59:50.202Z,19.68
2022-12-11T19:02:16.920Z,19.70
2022-12-11T19:04:43.613Z,19.73
2022-12-11T19:07:10.280Z,19.75
2022-12-11T19:09:47.841Z,19.77
2022-12-11T19:12:15.126Z,19.80
2022-12-11T19:14:41.772Z,19.84
2022-12-11T19:17:08.406Z,19.86
2022-12-11T19:19:44.474Z,19.88
2022-12-11T19:22:11.141Z,19.88
2022-12-11T19:24:37.845Z,19.92
2022-12-11T19:27:08.565Z,19.93
2022-12-11T19:29:38.618Z,19.94
2022-12-11T19:32:05.445Z,19.95
2022-12-11T19:34:32.252Z,19.97
2022-12-11T19:36:58.987Z,19.97
2022-12-11T19:39:25.601Z,19.98
2022-12-11T19:41:52.253Z,19.99
2022-12-11T19:44:18.918Z,20.01
2022-12-11T19:46:45.677Z,20.02
2022-12-11T19:49:12.436Z,20.02
2022-12-11T19:51:40.595Z,20.04
2022-12-11T19:54:08.297Z,20.06
2022-12-11T19:56:35.602Z,20.08
2022-12-11T19:59:03.590Z,20.10
2022-12-11T20:01:31.304Z,20.12
2022-12-11T20:03:59.764Z,20.14
2022-12-11T20:06:30.172Z,20.14
2022-12-11T20:08:57.194Z,20.17
2022-12-11T20:11:23.996Z,20.19
2022-12-11T20:13:51.471Z,20.21
2022-12-11T20:16:28.868Z,20.24
2022-12-11T20:19:05.984Z,20.25
2022-12-11T20:21:32.700Z,20.27
2022-12-11T20:23:59.797Z,20.29
2022-12-11T20:26:26.686Z,20.31
2022-12-11T20:28:53.650Z,20.34
2022-12-11T20:31:21.880Z,20.35
2022-12-11T20:33:49.940Z,20.37
2022-12-11T20:36:17.256Z,20.40
2022-12-11T20:38:44.147Z,20.41
2022-12-11T20:41:12.100Z,20.43
2022-12-11T20:43:39.178Z,20.44
2022-12-11T20:46:09.981Z,20.48
2022-12-11T20:48:36.917Z,20.49
2022-12-11T20:51:04.504Z,20.49
2022-12-11T20:53:31.226Z,20.52
2022-12-11T20:56:38.980Z,20.54
2022-12-11T20:59:14.461Z,20.57
2022-12-11T21:01:47.360Z,20.59
2022-12-11T21:04:14.077Z,20.60
2022-12-11T21:06:42.192Z,20.63
2022-12-11T21:09:12.540Z,20.66
2022-12-11T21:11:39.730Z,20.67
2022-12-11T21:14:06.418Z,20.70
2022-12-11T21:16:34.786Z,20.72
2022-12-11T21:19:01.780Z,20.74
2022-12-11T21:21:28.518Z,20.76
2022-12-11T21:23:55.156Z,20.77
2022-12-11T21:26:21.902Z,20.78
2022-12-11T21:28:48.593Z,20.80
2022-12-11T21:31:16.351Z,20.81
2022-12-11T21:33:43.206Z,20.83
2022-12-11T21:36:11.356Z,20.83
2022-12-11T21:38:38.497Z,20.85
2022-12-11T21:41:13.816Z,20.86
2022-12-11T21:44:14.254Z,20.87
2022-12-11T21:46:28.179Z,20.90
2022-12-11T21:48:55.020Z,20.90
2022-12-11T21:51:23.679Z,20.92
2022-12-11T21:53:50.386Z,20.93
2022-12-11T21:56:18.335Z,20.95
2022-12-11T21:58:45.327Z,20.95
2022-12-11T22:01:31.610Z,20.96
2022-12-11T22:03:58.655Z,20.98
2022-12-11T22:06:25.280Z,20.99
2022-12-11T22:08:52.067Z,21.00
2022-12-11T22:11:19.695Z,21.02
2022-12-11T22:13:46.558Z,21.03
2022-12-11T22:16:13.343Z,21.04
2022-12-11T22:18:40.115Z,21.05
2022-12-11T22:21:10.962Z,21.06
2022-12-11T22:23:38.623Z,21.07
2022-12-11T22:26:06.052Z,21.08
2022-12-11T22:28:32.680Z,21.10
2022-12-11T22:30:59.683Z,21.11
2022-12-11T22:33:26.329Z,21.12
2022-12-11T22:35:57.345Z,21.12
2022-12-11T22:38:24.181Z,21.15
2022-12-11T22:40:50.891Z,21.15
2022-12-11T22:43:17.644Z,21.16
2022-12-11T22:45:44.366Z,21.18
2022-12-11T22:48:11.201Z,21.20
2022-12-11T22:50:38.624Z,21.01
2022-12-11T22:53:05.829Z,21.03
2022-12-11T22:55:32.542Z,21.07
2022-12-11T22:57:59.192Z,21.10
2022-12-11T23:00:26.248Z,21.11
2022-12-11T23:02:53.032Z,21.13
2022-12-11T23:05:19.831Z,21.16
2022-12-11T23:07:46.737Z,21.18
2022-12-11T23:10:13.651Z,21.21
2022-12-11T23:12:40.418Z,21.22
2022-12-11T23:15:08.678Z,21.24
2022-12-11T23:17:35.280Z,21.29
2022-12-11T23:20:04.045Z,21.33
2022-12-11T23:22:30.812Z,21.35
2022-12-11T23:24:57.548Z,21.37
2022-12-11T23:27:24.183Z,21.39
2022-12-11T23:29:50.883Z,21.42
2022-12-11T23:32:17.549Z,21.43
2022-12-11T23:34:44.170Z,21.46
2022-12-11T23:37:10.912Z,21.48
2022-12-11T23:39:45.467Z,21.51
2022-12-11T23:42:12.089Z,21.54
2022-12-11T23:44:38.750Z,21.56
2022-12-11T23:47:05.417Z,21.57
2022-12-11T23:49:32.164Z,21.60
2022-12-11T23:51:58.891Z,21.63
2022-12-11T23:54:25.504Z,21.64
2022-12-11T23:57:16.605Z,21.66
2022-12-11T23:59:55.064Z,21.67
